createdAt,value
2018-08-17T00:00:54.341Z,19.55
2018-08-17T00:03:24.258Z,19.47
2018-08-17T00:05:53.352Z,19.49
2018-08-17T00:08:22.705Z,19.46
2018-08-17T00:10:51.934Z,19.43
2018-08-17T00:13:21.289Z,19.38
2018-08-17T00:15:50.828Z,19.36
2018-08-17T00:18:20.079Z,19.31
2018-08-17T00:20:49.208Z,19.29
2018-08-17T00:23:18.296Z,19.24
2018-08-17T00:25:47.396Z,19.21
2018-08-17T00:28:16.388Z,19.14
2018-08-17T00:30:45.401Z,19.10
2018-08-17T00:33:14.227Z,19.08
2018-08-17T00:35:43.217Z,19.04
2018-08-17T00:38:12.336Z,19.01
2018-08-17T00:40:41.512Z,18.98
2018-08-17T00:43:10.506Z,18.97
2018-08-17T00:45:39.496Z,18.95
2018-08-17T00:48:09.129Z,18.91
2018-08-17T00:50:38.253Z,18.88
2018-08-17T00:53:07.553Z,18.84
2018-08-17T00:55:36.769Z,18.77
2018-08-17T00:58:05.847Z,18.78
2018-08-17T01:00:35.129Z,18.75
2018-08-17T01:03:04.245Z,18.76
2018-08-17T01:05:33.237Z,18.75
2018-08-17T01:08:01.885Z,18.72
2018-08-17T01:10:30.915Z,18.64
2018-08-17T01:13:00.079Z,18.63
2018-08-17T01:15:29.059Z,18.64
2018-08-17T01:17:58.100Z,18.66
2018-08-17T01:20:27.298Z,18.63
2018-08-17T01:22:56.589Z,18.54
2018-08-17T01:25:25.969Z,18.49
2018-08-17T01:27:55.275Z,18.45
2018-08-17T01:30:25.185Z,18.43
2018-08-17T01:32:54.621Z,18.41
2018-08-17T01:35:24.844Z,18.43
2018-08-17T01:37:54.148Z,18.49
2018-08-17T01:40:23.548Z,18.53
2018-08-17T01:42:52.898Z,18.56
2018-08-17T01:45:22.633Z,18.64
2018-08-17T01:47:51.861Z,18.67
2018-08-17T01:50:21.161Z,18.71
2018-08-17T01:52:50.357Z,18.82
2018-08-17T01:55:19.664Z,18.77
2018-08-17T01:57:48.804Z,18.69
2018-08-17T02:00:18.078Z,18.59
2018-08-17T02:02:46.905Z,18.56
2018-08-17T02:05:16.141Z,18.50
2018-08-17T02:07:45.442Z,18.53
2018-08-17T02:10:14.742Z,18.53
2018-08-17T02:12:44.147Z,18.60
2018-08-17T02:15:13.651Z,18.69
2018-08-17T02:17:43.004Z,18.75
2018-08-17T02:20:12.353Z,18.82
2018-08-17T02:22:41.764Z,18.90
2018-08-17T02:25:11.266Z,18.97
2018-08-17T02:27:40.564Z,19.00
2018-08-17T02:30:09.965Z,18.97
2018-08-17T02:32:39.233Z,18.94
2018-08-17T02:35:08.464Z,18.93
2018-08-17T02:37:37.714Z,18.93
2018-08-17T02:40:06.859Z,18.87
2018-08-17T02:42:35.377Z,18.89
2018-08-17T02:45:03.922Z,18.79
2018-08-17T02:47:32.488Z,18.66
2018-08-17T02:50:00.902Z,18.62
2018-08-17T02:52:29.329Z,18.51
2018-08-17T02:54:57.770Z,18.44
2018-08-17T02:57:26.190Z,18.43
2018-08-17T02:59:54.763Z,18.37
2018-08-17T03:02:23.658Z,18.30
2018-08-17T03:04:52.221Z,18.20
2018-08-17T03:07:20.696Z,18.17
2018-08-17T03:09:49.165Z,18.11
2018-08-17T03:12:17.666Z,18.10
2018-08-17T03:14:46.145Z,18.15
2018-08-17T03:17:14.770Z,18.19
2018-08-17T03:19:43.206Z,18.23
2018-08-17T03:22:11.824Z,18.24
2018-08-17T03:24:40.281Z,18.26
2018-08-17T03:27:08.773Z,18.27
2018-08-17T03:29:37.432Z,18.28
2018-08-17T03:32:06.097Z,18.25
2018-08-17T03:34:34.618Z,18.29
2018-08-17T03:37:03.196Z,18.27
2018-08-17T03:39:31.705Z,18.26
2018-08-17T03:42:00.146Z,18.32
2018-08-17T03:44:29.054Z,18.32
2018-08-17T03:46:57.509Z,18.31
2018-08-17T03:49:26.201Z,18.30
2018-08-17T03:51:54.733Z,18.28
2018-08-17T03:54:23.610Z,18.26
2018-08-17T03:56:52.332Z,18.20
2018-08-17T03:59:20.763Z,18.16
2018-08-17T04:01:49.273Z,18.13
2018-08-17T04:04:17.725Z,18.13
2018-08-17T04:06:46.196Z,18.08
2018-08-17T04:09:14.684Z,18.05
2018-08-17T04:11:43.207Z,18.01
2018-08-17T04:14:11.646Z,18.02
2018-08-17T04:16:40.030Z,18.00
2018-08-17T04:19:08.645Z,18.05
2018-08-17T04:21:37.176Z,18.02
2018-08-17T04:24:05.690Z,18.01
2018-08-17T04:26:34.201Z,17.93
2018-08-17T04:29:02.662Z,17.83
2018-08-17T04:31:31.249Z,17.78
2018-08-17T04:33:59.672Z,17.76
2018-08-17T04:36:28.162Z,17.79
2018-08-17T04:38:56.662Z,17.79
2018-08-17T04:41:25.458Z,17.82
2018-08-17T04:43:53.942Z,17.87
2018-08-17T04:46:22.651Z,17.87
2018-08-17T04:48:51.113Z,17.93
2018-08-17T04:51:19.714Z,17.99
2018-08-17T04:53:48.126Z,18.04
2018-08-17T04:56:16.598Z,18.12
2018-08-17T04:58:44.982Z,18.13
2018-08-17T05:01:13.574Z,18.16
2018-08-17T05:03:41.974Z,18.24
2018-08-17T05:06:10.541Z,18.24
2018-08-17T05:08:38.978Z,18.30
2018-08-17T05:11:07.671Z,18.31
2018-08-17T05:13:36.121Z,18.32
2018-08-17T05:16:04.653Z,18.34
2018-08-17T05:18:33.068Z,18.35
2018-08-17T05:21:01.573Z,18.42
2018-08-17T05:23:30.115Z,18.44
2018-08-17T05:25:58.590Z,18.47
2018-08-17T05:28:26.989Z,18.50
2018-08-17T05:30:55.502Z,18.53
2018-08-17T05:33:24.670Z,18.57
2018-08-17T05:35:53.238Z,18.63
2018-08-17T05:38:21.843Z,18.66
2018-08-17T05:40:50.377Z,18.70
2018-08-17T05:43:19.118Z,18.81
2018-08-17T05:45:47.654Z,18.86
2018-08-17T05:48:16.271Z,18.91
2018-08-17T05:50:44.805Z,18.95
2018-08-17T05:53:13.238Z,19.09
2018-08-17T05:55:41.837Z,19.20
2018-08-17T05:58:10.333Z,19.31
2018-08-17T06:00:38.900Z,19.35
2018-08-17T06:03:07.413Z,19.46
2018-08-17T06:05:35.919Z,19.53
2018-08-17T06:08:04.382Z,19.61
2018-08-17T06:10:32.838Z,19.69
2018-08-17T06:13:01.482Z,19.81
2018-08-17T06:15:30.010Z,19.89
2018-08-17T06:17:58.497Z,19.97
2018-08-17T06:20:27.014Z,20.06
2018-08-17T06:22:55.442Z,20.12
2018-08-17T06:25:24.192Z,20.23
2018-08-17T06:27:52.657Z,20.29
2018-08-17T06:30:21.165Z,20.32
2018-08-17T06:32:49.924Z,20.39
2018-08-17T06:35:19.539Z,20.52
2018-08-17T06:37:48.178Z,20.61
2018-08-17T06:40:16.736Z,20.68
2018-08-17T06:42:45.234Z,20.67
2018-08-17T06:45:13.943Z,20.61
2018-08-17T06:47:42.446Z,20.65
2018-08-17T06:50:11.877Z,20.78
2018-08-17T06:52:41.302Z,20.92
2018-08-17T06:55:10.986Z,21.08
2018-08-17T06:57:39.925Z,21.24
2018-08-17T07:00:14.227Z,21.41
2018-08-17T07:02:43.722Z,21.59
2018-08-17T07:05:12.234Z,21.72
2018-08-17T07:07:41.119Z,21.83
2018-08-17T07:10:13.885Z,22.00
2018-08-17T07:12:43.006Z,22.15
2018-08-17T07:15:11.669Z,22.31
2018-08-17T07:17:40.693Z,22.50
2018-08-17T07:20:10.888Z,22.65
2018-08-17T07:22:39.517Z,22.78
2018-08-17T07:25:08.361Z,22.95
2018-08-17T07:27:36.872Z,23.09
2018-08-17T07:30:07.124Z,23.26
2018-08-17T07:32:35.653Z,23.33
2018-08-17T07:35:04.418Z,23.46
2018-08-17T07:37:32.837Z,23.61
2018-08-17T07:40:01.310Z,23.76
2018-08-17T07:42:29.949Z,23.82
2018-08-17T07:44:58.386Z,23.89
2018-08-17T07:47:26.948Z,24.09
2018-08-17T07:49:55.448Z,24.27
2018-08-17T07:52:24.272Z,24.42
2018-08-17T07:54:52.892Z,24.51
2018-08-17T07:57:21.352Z,24.61
2018-08-17T07:59:49.774Z,24.78
2018-08-17T08:02:18.217Z,24.81
2018-08-17T08:04:46.746Z,24.94
2018-08-17T08:07:15.237Z,24.99
2018-08-17T08:09:43.693Z,25.08
2018-08-17T08:12:12.265Z,25.13
2018-08-17T08:14:40.758Z,25.12
2018-08-17T08:17:09.146Z,25.23
2018-08-17T08:19:37.557Z,25.32
2018-08-17T08:22:06.094Z,25.39
2018-08-17T08:24:38.798Z,25.48
2018-08-17T08:27:08.077Z,25.60
2018-08-17T08:29:36.489Z,25.76
2018-08-17T08:32:05.037Z,25.85
2018-08-17T08:34:33.449Z,25.99
2018-08-17T08:37:01.930Z,26.14
2018-08-17T08:39:30.471Z,26.30
2018-08-17T08:41:58.910Z,26.47
2018-08-17T08:44:27.527Z,26.50
2018-08-17T08:46:55.943Z,26.54
2018-08-17T08:49:24.579Z,26.67
2018-08-17T08:51:53.019Z,26.75
2018-08-17T08:54:21.518Z,26.80
2018-08-17T08:56:49.997Z,26.89
2018-08-17T08:59:18.466Z,27.03
2018-08-17T09:01:46.892Z,26.93
2018-08-17T09:04:15.338Z,27.11
2018-08-17T09:06:43.812Z,27.38
2018-08-17T09:09:12.334Z,27.42
2018-08-17T09:11:40.746Z,27.50
2018-08-17T09:14:09.283Z,27.62
2018-08-17T09:16:37.874Z,27.69
2018-08-17T09:19:06.635Z,27.92
2018-08-17T09:21:35.134Z,28.19
2018-08-17T09:24:03.646Z,28.50
2018-08-17T09:26:32.145Z,28.87
2018-08-17T09:29:00.550Z,28.81
2018-08-17T09:31:29.022Z,28.93
2018-08-17T09:33:57.552Z,29.26
2018-08-17T09:36:26.005Z,29.42
2018-08-17T09:38:54.505Z,29.35
2018-08-17T09:41:22.995Z,29.43
2018-08-17T09:43:51.449Z,29.74
2018-08-17T09:46:19.919Z,29.83
2018-08-17T09:48:48.505Z,30.64
2018-08-17T09:51:17.007Z,31.26
2018-08-17T09:53:45.458Z,32.02
2018-08-17T09:56:14.390Z,32.51
2018-08-17T09:58:42.841Z,32.87
2018-08-17T10:01:16.753Z,33.34
2018-08-17T10:03:49.561Z,33.60
2018-08-17T10:06:23.502Z,34.10
2018-08-17T10:08:57.261Z,34.34
2018-08-17T10:11:26.790Z,34.88
2018-08-17T10:13:55.238Z,34.88
2018-08-17T10:16:24.000Z,35.02
2018-08-17T10:18:52.397Z,35.01
2018-08-17T10:21:21.158Z,35.20
2018-08-17T10:23:49.512Z,35.94
2018-08-17T10:26:18.116Z,36.51
2018-08-17T10:28:46.681Z,36.16
2018-08-17T10:31:18.613Z,36.48
2018-08-17T10:33:48.484Z,36.23
2018-08-17T10:36:16.994Z,36.51
2018-08-17T10:38:45.449Z,36.82
2018-08-17T10:41:13.970Z,36.90
2018-08-17T10:43:42.409Z,37.52
2018-08-17T10:46:10.911Z,37.59
2018-08-17T10:48:39.360Z,37.42
2018-08-17T10:51:07.880Z,37.38
2018-08-17T10:53:40.882Z,37.01
2018-08-17T10:56:09.354Z,36.90
2018-08-17T10:58:41.449Z,37.51
2018-08-17T11:01:09.901Z,37.95
2018-08-17T11:03:38.378Z,37.83
2018-08-17T11:06:06.889Z,38.09
2018-08-17T11:08:35.275Z,39.31
2018-08-17T11:11:03.819Z,39.66
2018-08-17T11:13:32.271Z,39.59
2018-08-17T11:16:00.773Z,41.05
2018-08-17T11:18:29.246Z,40.68
2018-08-17T11:20:57.777Z,39.02
2018-08-17T11:23:26.286Z,39.46
2018-08-17T11:25:54.714Z,40.13
2018-08-17T11:28:23.505Z,39.82
2018-08-17T11:30:51.994Z,38.50
2018-08-17T11:33:27.253Z,36.26
2018-08-17T11:35:56.119Z,35.78
2018-08-17T11:38:25.133Z,35.42
2018-08-17T11:40:53.621Z,34.95
2018-08-17T11:43:22.274Z,34.80
2018-08-17T11:45:50.838Z,34.10
2018-08-17T11:48:26.545Z,34.42
2018-08-17T11:50:55.910Z,34.40
2018-08-17T11:53:25.688Z,34.67
2018-08-17T11:55:54.307Z,36.72
2018-08-17T11:58:22.861Z,39.09
2018-08-17T12:00:51.369Z,40.51
2018-08-17T12:03:19.802Z,41.08
2018-08-17T12:05:48.252Z,40.09
2018-08-17T12:08:16.800Z,38.24
2018-08-17T12:10:50.424Z,36.70
2018-08-17T12:13:19.093Z,36.21
2018-08-17T12:15:53.467Z,36.09
2018-08-17T12:18:21.984Z,37.52
2018-08-17T12:20:50.509Z,37.44
2018-08-17T12:23:18.984Z,38.20
2018-08-17T12:25:55.140Z,38.38
2018-08-17T12:28:24.621Z,38.19
2018-08-17T12:30:53.126Z,37.90
2018-08-17T12:33:21.630Z,37.34
2018-08-17T12:35:50.058Z,36.50
2018-08-17T12:38:19.573Z,35.75
2018-08-17T12:40:49.270Z,35.16
2018-08-17T12:43:18.894Z,33.70
2018-08-17T12:45:47.691Z,33.72
2018-08-17T12:48:17.014Z,33.07
2018-08-17T12:50:45.870Z,32.49
2018-08-17T12:53:14.674Z,32.93
2018-08-17T12:55:43.641Z,33.10
2018-08-17T12:58:12.651Z,33.06
2018-08-17T13:00:41.162Z,33.46
2018-08-17T13:03:09.637Z,32.85
2018-08-17T13:05:38.278Z,32.84
2018-08-17T13:08:07.599Z,33.61
2018-08-17T13:10:36.226Z,34.37
2018-08-17T13:13:09.721Z,34.55
2018-08-17T13:15:39.313Z,33.53
2018-08-17T13:18:15.145Z,33.03
2018-08-17T13:20:44.130Z,33.26
2018-08-17T13:23:12.915Z,33.52
2018-08-17T13:25:41.921Z,33.63
2018-08-17T13:28:11.845Z,33.51
2018-08-17T13:30:40.403Z,32.41
2018-08-17T13:33:08.985Z,32.09
2018-08-17T13:35:37.490Z,31.63
2018-08-17T13:38:06.296Z,31.77
2018-08-17T13:40:34.916Z,32.15
2018-08-17T13:43:03.511Z,32.31
2018-08-17T13:45:31.921Z,32.72
2018-08-17T13:48:00.758Z,33.29
2018-08-17T13:50:29.151Z,33.50
2018-08-17T13:52:57.601Z,33.61
2018-08-17T13:55:26.513Z,34.09
2018-08-17T13:57:55.129Z,35.23
2018-08-17T14:00:24.115Z,34.54
2018-08-17T14:02:52.530Z,33.25
2018-08-17T14:05:21.053Z,31.76
2018-08-17T14:07:49.585Z,31.16
2018-08-17T14:10:18.109Z,30.74
2018-08-17T14:12:46.573Z,30.32
2018-08-17T14:15:15.093Z,30.11
2018-08-17T14:17:43.514Z,29.69
2018-08-17T14:20:14.491Z,29.64
2018-08-17T14:22:43.536Z,29.50
2018-08-17T14:25:12.551Z,29.24
2018-08-17T14:27:41.065Z,29.17
2018-08-17T14:30:12.484Z,28.70
2018-08-17T14:32:41.250Z,28.46
2018-08-17T14:35:09.826Z,28.39
2018-08-17T14:37:38.224Z,28.42
2018-08-17T14:40:07.322Z,28.38
2018-08-17T14:42:35.794Z,28.27
2018-08-17T14:45:05.089Z,28.05
2018-08-17T14:47:33.621Z,28.03
2018-08-17T14:50:02.165Z,27.83
2018-08-17T14:52:30.613Z,27.78
2018-08-17T14:54:59.041Z,27.89
2018-08-17T14:57:27.591Z,28.11
2018-08-17T14:59:56.090Z,28.17
2018-08-17T15:02:25.130Z,28.27
2018-08-17T15:04:53.605Z,28.25
2018-08-17T15:07:22.077Z,28.18
2018-08-17T15:09:50.608Z,27.99
2018-08-17T15:12:19.146Z,28.00
2018-08-17T15:14:47.610Z,28.00
2018-08-17T15:17:16.130Z,28.18
2018-08-17T15:19:44.563Z,28.20
2018-08-17T15:22:13.186Z,27.79
2018-08-17T15:24:41.636Z,27.82
2018-08-17T15:27:10.425Z,28.37
2018-08-17T15:29:38.929Z,28.81
2018-08-17T15:32:07.808Z,29.33
2018-08-17T15:34:36.301Z,29.57
2018-08-17T15:37:04.946Z,29.52
2018-08-17T15:39:33.469Z,29.64
2018-08-17T15:42:02.180Z,29.35
2018-08-17T15:44:30.681Z,29.48
2018-08-17T15:46:59.789Z,29.08
2018-08-17T15:49:34.718Z,28.90
2018-08-17T15:52:04.555Z,28.82
2018-08-17T15:54:33.063Z,28.97
2018-08-17T15:57:01.944Z,29.16
2018-08-17T15:59:30.562Z,29.34
2018-08-17T16:01:59.135Z,29.42
2018-08-17T16:04:27.810Z,29.58
2018-08-17T16:06:56.446Z,29.82
2018-08-17T16:09:25.475Z,30.04
2018-08-17T16:11:54.034Z,29.70
2018-08-17T16:14:22.838Z,29.76
2018-08-17T16:16:51.481Z,29.91
2018-08-17T16:19:20.441Z,30.31
2018-08-17T16:21:49.345Z,30.80
2018-08-17T16:24:17.909Z,31.51
2018-08-17T16:26:46.365Z,32.16
2018-08-17T16:29:14.994Z,33.27
2018-08-17T16:31:43.529Z,34.96
2018-08-17T16:34:12.121Z,35.88
2018-08-17T16:36:42.165Z,36.33
2018-08-17T16:39:16.309Z,36.29
2018-08-17T16:41:44.941Z,36.11
2018-08-17T16:44:14.681Z,37.61
2018-08-17T16:46:44.131Z,37.07
2018-08-17T16:49:12.765Z,36.60
2018-08-17T16:51:41.257Z,36.83
2018-08-17T16:54:09.858Z,36.45
2018-08-17T16:56:38.290Z,35.05
2018-08-17T16:59:07.306Z,34.11
2018-08-17T17:01:35.729Z,33.30
2018-08-17T17:04:04.285Z,31.36
2018-08-17T17:06:33.076Z,30.53
2018-08-17T17:09:04.733Z,29.87
2018-08-17T17:11:33.442Z,29.77
2018-08-17T17:14:01.967Z,29.23
2018-08-17T17:16:36.741Z,28.84
2018-08-17T17:19:06.859Z,28.70
2018-08-17T17:21:35.377Z,28.50
2018-08-17T17:24:04.038Z,28.22
2018-08-17T17:26:32.476Z,28.18
2018-08-17T17:29:01.062Z,27.94
2018-08-17T17:31:29.658Z,27.77
2018-08-17T17:33:58.281Z,27.62
2018-08-17T17:36:26.697Z,27.25
2018-08-17T17:38:55.187Z,27.08
2018-08-17T17:41:24.403Z,26.92
2018-08-17T17:43:52.883Z,26.77
2018-08-17T17:46:21.443Z,26.62
2018-08-17T17:48:51.112Z,26.46
2018-08-17T17:51:19.538Z,26.37
2018-08-17T17:53:48.075Z,26.35
2018-08-17T17:56:16.641Z,26.27
2018-08-17T17:58:45.110Z,26.27
2018-08-17T18:01:13.579Z,26.19
2018-08-17T18:03:45.533Z,26.10
2018-08-17T18:06:14.009Z,25.97
2018-08-17T18:08:42.565Z,25.83
2018-08-17T18:11:11.106Z,25.74
2018-08-17T18:13:39.586Z,25.63
2018-08-17T18:16:08.058Z,25.51
2018-08-17T18:18:36.561Z,25.51
2018-08-17T18:21:05.106Z,25.42
2018-08-17T18:23:33.517Z,25.32
2018-08-17T18:26:02.005Z,25.22
2018-08-17T18:28:30.620Z,25.06
2018-08-17T18:30:59.150Z,24.95
2018-08-17T18:33:27.565Z,24.82
2018-08-17T18:35:55.988Z,24.67
2018-08-17T18:38:25.578Z,24.60
2018-08-17T18:40:54.181Z,24.54
2018-08-17T18:43:22.680Z,24.42
2018-08-17T18:45:51.242Z,24.31
2018-08-17T18:48:19.746Z,24.27
2018-08-17T18:50:48.271Z,24.20
2018-08-17T18:53:16.821Z,24.07
2018-08-17T18:55:45.453Z,23.98
2018-08-17T18:58:13.993Z,23.91
2018-08-17T19:00:42.446Z,23.83
2018-08-17T19:03:11.089Z,23.70
2018-08-17T19:05:39.522Z,23.66
2018-08-17T19:08:07.954Z,23.61
2018-08-17T19:10:36.578Z,23.52
2018-08-17T19:13:05.305Z,23.45
2018-08-17T19:15:40.322Z,23.34
2018-08-17T19:18:08.694Z,23.21
2018-08-17T19:20:37.250Z,23.15
2018-08-17T19:23:05.893Z,23.10
2018-08-17T19:25:39.442Z,22.97
2018-08-17T19:28:07.946Z,22.94
2018-08-17T19:30:36.530Z,22.91
2018-08-17T19:33:08.584Z,22.97
2018-08-17T19:35:37.101Z,23.01
2018-08-17T19:38:05.706Z,23.00
2018-08-17T19:40:34.145Z,22.98
2018-08-17T19:43:02.673Z,22.93
2018-08-17T19:45:31.205Z,22.88
2018-08-17T19:47:59.711Z,22.89
2018-08-17T19:50:28.559Z,22.81
2018-08-17T19:52:56.977Z,22.73
2018-08-17T19:55:25.978Z,22.61
2018-08-17T19:57:54.398Z,22.57
2018-08-17T20:00:23.278Z,22.50
2018-08-17T20:02:51.770Z,22.47
2018-08-17T20:05:20.274Z,22.43
2018-08-17T20:07:48.933Z,22.40
2018-08-17T20:10:17.343Z,22.33
2018-08-17T20:12:46.131Z,22.31
2018-08-17T20:15:14.621Z,22.23
2018-08-17T20:17:50.742Z,22.16
2018-08-17T20:20:19.653Z,22.18
2018-08-17T20:22:48.230Z,22.10
2018-08-17T20:25:17.689Z,22.09
2018-08-17T20:27:47.254Z,22.03
2018-08-17T20:30:19.814Z,21.91
2018-08-17T20:32:48.241Z,21.82
2018-08-17T20:35:16.908Z,21.80
2018-08-17T20:37:50.881Z,21.69
2018-08-17T20:40:19.619Z,21.62
2018-08-17T20:42:48.512Z,21.59
2018-08-17T20:45:17.077Z,21.52
2018-08-17T20:47:45.730Z,21.45
2018-08-17T20:50:18.715Z,21.44
2018-08-17T20:52:56.358Z,21.49
2018-08-17T20:55:25.445Z,21.45
2018-08-17T20:57:55.014Z,21.39
2018-08-17T21:00:25.462Z,21.33
2018-08-17T21:02:54.314Z,21.27
2018-08-17T21:05:23.417Z,21.26
2018-08-17T21:07:52.125Z,21.24
2018-08-17T21:10:20.781Z,21.20
2018-08-17T21:12:49.702Z,21.19
2018-08-17T21:15:18.782Z,21.18
2018-08-17T21:17:47.607Z,21.15
2018-08-17T21:20:16.246Z,21.17
2018-08-17T21:22:44.732Z,21.15
2018-08-17T21:25:14.033Z,21.10
2018-08-17T21:27:42.497Z,21.07
2018-08-17T21:30:11.523Z,21.03
2018-08-17T21:32:40.050Z,21.04
2018-08-17T21:35:08.962Z,21.01
2018-08-17T21:37:38.825Z,20.98
2018-08-17T21:40:18.573Z,20.90
2018-08-17T21:42:48.077Z,20.83
2018-08-17T21:45:16.585Z,20.81
2018-08-17T21:47:45.111Z,20.77
2018-08-17T21:50:14.564Z,20.72
2018-08-17T21:52:43.750Z,20.67
2018-08-17T21:55:12.519Z,20.64
2018-08-17T21:57:41.223Z,20.53
2018-08-17T22:00:30.506Z,20.45
2018-08-17T22:02:59.281Z,20.39
2018-08-17T22:05:34.285Z,20.32
2018-08-17T22:08:02.894Z,20.22
2018-08-17T22:10:31.802Z,20.26
2018-08-17T22:13:00.403Z,20.19
2018-08-17T22:15:30.533Z,20.19
2018-08-17T22:17:58.970Z,20.15
2018-08-17T22:20:27.513Z,20.11
2018-08-17T22:22:56.119Z,20.07
2018-08-17T22:25:24.872Z,20.10
2018-08-17T22:27:53.433Z,20.04
2018-08-17T22:30:23.881Z,20.05
2018-08-17T22:32:52.305Z,20.03
2018-08-17T22:35:20.917Z,19.99
2018-08-17T22:37:49.409Z,20.01
2018-08-17T22:40:17.894Z,20.04
2018-08-17T22:42:48.316Z,20.03
2018-08-17T22:45:17.105Z,19.99
2018-08-17T22:47:45.869Z,19.91
2018-08-17T22:50:15.160Z,19.87
2018-08-17T22:52:43.819Z,19.81
2018-08-17T22:55:12.270Z,19.74
2018-08-17T22:57:41.722Z,19.68
2018-08-17T23:00:42.898Z,19.62
2018-08-17T23:03:11.420Z,19.52
2018-08-17T23:05:39.853Z,19.38
2018-08-17T23:08:08.521Z,19.34
2018-08-17T23:10:36.950Z,19.30
2018-08-17T23:13:05.481Z,19.27
2018-08-17T23:15:33.881Z,19.26
2018-08-17T23:18:02.545Z,19.24
2018-08-17T23:20:33.725Z,19.22
2018-08-17T23:23:03.016Z,19.22
2018-08-17T23:25:31.880Z,19.09
2018-08-17T23:28:01.549Z,19.08
2018-08-17T23:30:31.985Z,19.07
2018-08-17T23:33:01.013Z,19.02
2018-08-17T23:35:29.632Z,19.00
2018-08-17T23:37:58.233Z,19.05
2018-08-17T23:40:26.762Z,18.97
2018-08-17T23:42:55.239Z,18.96
2018-08-17T23:45:24.586Z,18.97
2018-08-17T23:47:53.033Z,18.98
2018-08-17T23:50:21.592Z,18.99
2018-08-17T23:52:50.009Z,19.04
2018-08-17T23:55:19.317Z,19.05
2018-08-17T23:57:47.806Z,19.10
